Saint Thomas, ND (58276)

8:09 AM CST on February 07, 2016 (GMT -0600)
Cavalier | | Change Station
CLOSE
Current Station
Airport
Location: Cavalier,
Elevation: 892 ft
Nearby Weather Stations
Active Advisory: Blizzard Warning

Elev 892 ft 48.78 °N, 97.63 °W | Updated 14 minutes ago

Overcast
Overcast
32 °F
Feels Like 19 °F
N
23
Wind Variable Wind from NNW
Gusts 30 mph

Today
High -- | Low -- °F
--% Chance of Precip.
Yesterday
High -- | Low -- °F
Precip. -- in
Pressure 29.54 in
Visibility 9.0 miles
Clouds Scattered Clouds 1400 ft
Mostly Cloudy 1900 ft
Overcast 2400 ft
Windchill 19 °F
Dew Point 28 °F
Humidity 87%
Rainfall 0.04 in
Snow Depth Not available.
7:51 AM 5:37 PM
Waning Crescent, 1% visible
METAR K2C8 071355Z AUTO 34020G26KT 9SM SCT014 BKN019 OVC024 00/M02 A2954 RMK AO2
Pressure 29.54 in
Visibility 9.0 miles
Clouds Scattered Clouds 1400 ft
Mostly Cloudy 1900 ft
Overcast 2400 ft
Windchill 19 °F
Dew Point 28 °F
Humidity 87%
Rainfall 0.04 in
Snow Depth Not available.
7:51 AM 5:37 PM
Waning Crescent, 1% visible
METAR K2C8 071355Z AUTO 34020G26KT 9SM SCT014 BKN019 OVC024 00/M02 A2954 RMK AO2

10-Day Weather Forecast

Almanac

Astronomy

Feb. 07, 2016 Rise Set
Actual Time
Civil Twilight
Nautical Twilight
Astronomical Twilight
Moon
Length of Visible Light
Length of Day
Tomorrow will be .
, % of the Moon is Illuminated

Today's Extremes

State Highs State Lows

Community

WunderPhotos

Upload Photos

1,891,204 photos uploaded!

WunderBlog® & News

Nearby

Air Quality

  Air Quality AQ Index Pollutant
Not available.

Snow Depth

Station Depth Elevation

Earthquake Activity

City Distance Mag. Time & Date
Minimum magnitude displayed is 2.5.

Coastal Water Temperatures

Place Temperature

Stations

Nearby Weather Stations

Station Location Temp. Windchill Dew Point Humidity Wind Precip. Elev Updated Type
                   

Watches & Warnings

Blizzard Warning
Issued: 4:22 AM CST Feb. 7, 2016 – National Weather Service

... Blizzard Warning remains in effect until 6 am CST Monday...

* timing... expect blizzard conditions to develop around 6 to 9 am
Sunday and then diminish around 6 am Monday.

* Winds / visibilities... winds gusting as high as 55 mph will
cause whiteout conditions in blowing snow. Significant drifting
of the snow is likely... especially in open areas.

* Snow accumulations... up to 1 to 3 inches.

* Impacts... travel will be very difficult.

Precautionary/preparedness actions...

A Blizzard Warning means severe winter weather conditions are
expected or occurring. Falling and blowing snow with strong winds
and poor visibilities are likely. This will lead to whiteout
conditions... making travel extremely dangerous. Do not travel. If
you must travel... have a winter survival kit with you. If you get
stranded... stay with your vehicle. The latest Road conditions for
the state you are calling from can be obtained by calling 5 1 1.